createdAt,value
2019-05-18T00:01:05.162Z,69.70
2019-05-18T00:03:35.003Z,69.70
2019-05-18T00:06:05.119Z,69.90
2019-05-18T00:08:35.329Z,69.80
2019-05-18T00:11:05.215Z,69.60
2019-05-18T00:13:35.738Z,69.80
2019-05-18T00:16:06.341Z,69.80
2019-05-18T00:18:36.126Z,70.20
2019-05-18T00:21:06.300Z,70.10
2019-05-18T00:23:36.126Z,70.20
2019-05-18T00:26:07.030Z,70.40
2019-05-18T00:28:37.082Z,70.40
2019-05-18T00:31:06.849Z,70.60
2019-05-18T00:33:36.736Z,70.90
2019-05-18T00:36:07.642Z,71.00
2019-05-18T00:38:38.422Z,70.80
2019-05-18T00:41:08.425Z,71.00
2019-05-18T00:43:38.193Z,71.10
2019-05-18T00:46:08.014Z,71.10
2019-05-18T00:48:37.943Z,71.10
2019-05-18T00:51:07.763Z,71.10
2019-05-18T00:53:37.645Z,71.30
2019-05-18T00:56:07.430Z,71.60
2019-05-18T00:58:37.218Z,71.50
2019-05-18T01:01:07.103Z,71.60
2019-05-18T01:03:36.897Z,71.40
2019-05-18T01:06:07.411Z,71.40
2019-05-18T01:08:37.318Z,71.40
2019-05-18T01:11:07.830Z,71.20
2019-05-18T01:13:37.614Z,71.60
2019-05-18T01:16:09.157Z,71.40
2019-05-18T01:18:38.925Z,71.70
2019-05-18T01:21:08.900Z,71.60
2019-05-18T01:23:38.667Z,71.40
2019-05-18T01:26:09.539Z,71.60
2019-05-18T01:28:39.348Z,71.60
2019-05-18T01:31:09.961Z,71.70
2019-05-18T01:33:39.738Z,72.00
2019-05-18T01:36:09.511Z,71.70
2019-05-18T01:38:39.432Z,71.60
2019-05-18T01:41:09.371Z,72.10
2019-05-18T01:43:39.141Z,71.90
2019-05-18T01:46:09.054Z,71.80
2019-05-18T01:48:38.867Z,71.60
2019-05-18T01:51:08.680Z,72.10
2019-05-18T01:53:38.493Z,72.10
2019-05-18T01:56:08.265Z,72.00
2019-05-18T01:58:38.289Z,72.10
2019-05-18T02:01:08.257Z,72.30
2019-05-18T02:03:38.051Z,72.70
2019-05-18T02:06:07.800Z,72.80
2019-05-18T02:08:37.598Z,72.50
2019-05-18T02:11:07.363Z,72.20
2019-05-18T02:13:37.122Z,72.20
2019-05-18T02:16:06.943Z,72.40
2019-05-18T02:18:36.847Z,72.50
2019-05-18T02:21:06.633Z,72.80
2019-05-18T02:23:36.448Z,72.90
2019-05-18T02:26:06.241Z,72.70
2019-05-18T02:28:36.021Z,72.50
2019-05-18T02:31:05.794Z,72.50
2019-05-18T02:33:35.559Z,72.50
2019-05-18T02:36:05.597Z,72.50
2019-05-18T02:38:35.373Z,72.60
2019-05-18T02:41:05.139Z,73.40
2019-05-18T02:43:35.030Z,72.70
2019-05-18T02:46:04.829Z,72.70
2019-05-18T02:48:48.972Z,72.50
2019-05-18T02:51:06.086Z,72.80
2019-05-18T02:53:35.853Z,72.60
2019-05-18T02:56:06.641Z,72.50
2019-05-18T02:58:36.406Z,72.50
2019-05-18T03:01:07.070Z,72.70
2019-05-18T03:03:36.851Z,72.70
2019-05-18T03:06:06.734Z,72.70
2019-05-18T03:08:36.622Z,72.80
2019-05-18T03:11:06.380Z,72.80
2019-05-18T03:13:36.137Z,73.00
2019-05-18T03:16:05.963Z,73.10
2019-05-18T03:18:35.724Z,73.00
2019-05-18T03:21:05.486Z,73.00
2019-05-18T03:23:35.357Z,73.10
2019-05-18T03:26:06.147Z,73.30
2019-05-18T03:28:35.922Z,73.00
2019-05-18T03:31:05.739Z,73.00
2019-05-18T03:33:35.503Z,73.00
2019-05-18T03:36:05.275Z,73.10
2019-05-18T03:38:35.184Z,73.40
2019-05-18T03:41:05.162Z,73.70
2019-05-18T03:43:34.921Z,73.90
2019-05-18T03:46:04.686Z,73.80
2019-05-18T03:48:34.486Z,73.70
2019-05-18T03:51:05.090Z,73.80
2019-05-18T03:53:34.907Z,73.80
2019-05-18T03:56:04.670Z,73.60
2019-05-18T03:58:34.510Z,73.70
2019-05-18T04:01:04.391Z,73.80
2019-05-18T04:03:34.199Z,74.00
2019-05-18T04:06:04.232Z,74.70
2019-05-18T04:08:34.186Z,75.00
2019-05-18T04:11:04.053Z,75.40
2019-05-18T04:13:33.847Z,75.70
2019-05-18T04:16:03.751Z,75.70
2019-05-18T04:18:33.651Z,75.50
2019-05-18T04:21:07.053Z,74.70
2019-05-18T04:23:36.846Z,73.70
2019-05-18T04:26:06.745Z,72.60
2019-05-18T04:28:36.570Z,71.60
2019-05-18T04:31:07.103Z,70.40
2019-05-18T04:33:36.981Z,69.00
2019-05-18T04:36:06.798Z,67.60
2019-05-18T04:38:36.575Z,66.40
2019-05-18T04:41:07.130Z,64.60
2019-05-18T04:43:37.072Z,63.40
2019-05-18T04:46:06.995Z,62.20
2019-05-18T04:48:36.802Z,61.20
2019-05-18T04:51:06.620Z,60.40
2019-05-18T04:53:36.390Z,59.80
2019-05-18T04:56:06.182Z,59.10
2019-05-18T04:58:36.068Z,58.20
2019-05-18T05:01:05.854Z,56.70
2019-05-18T05:03:35.749Z,56.10
2019-05-18T05:06:05.593Z,54.90
2019-05-18T05:08:35.362Z,54.00
2019-05-18T05:11:05.130Z,52.80
2019-05-18T05:13:34.985Z,52.20
2019-05-18T05:16:04.797Z,51.30
2019-05-18T05:18:34.561Z,50.30
2019-05-18T05:21:04.397Z,49.70
2019-05-18T05:23:34.294Z,49.00
2019-05-18T05:26:04.066Z,48.70
2019-05-18T05:28:33.889Z,48.30
2019-05-18T05:31:03.764Z,47.60
2019-05-18T05:33:33.534Z,46.90
2019-05-18T05:36:03.405Z,46.80
2019-05-18T05:38:33.734Z,46.70
2019-05-18T05:41:03.668Z,46.50
2019-05-18T05:43:33.660Z,46.10
2019-05-18T05:46:04.269Z,45.70
2019-05-18T05:48:34.773Z,45.20
2019-05-18T05:51:04.613Z,44.70
2019-05-18T05:53:34.458Z,44.30
2019-05-18T05:56:04.257Z,43.70
2019-05-18T05:58:34.066Z,42.90
2019-05-18T06:01:03.944Z,42.50
2019-05-18T06:03:33.846Z,41.70
2019-05-18T06:06:03.665Z,41.20
2019-05-18T06:08:33.513Z,40.90
2019-05-18T06:11:03.381Z,40.50
2019-05-18T06:13:34.353Z,40.60
2019-05-18T06:16:04.377Z,39.80
2019-05-18T06:18:34.174Z,39.20
2019-05-18T06:21:03.972Z,37.90
2019-05-18T06:23:33.776Z,37.90
2019-05-18T06:26:03.592Z,37.80
2019-05-18T06:28:33.364Z,37.50
2019-05-18T06:31:03.253Z,37.30
2019-05-18T06:33:33.197Z,37.30
2019-05-18T06:36:03.195Z,37.40
2019-05-18T06:38:33.085Z,36.70
2019-05-18T06:41:02.962Z,36.60
2019-05-18T06:43:32.775Z,36.70
2019-05-18T06:46:02.584Z,36.20
2019-05-18T06:48:32.543Z,36.10
2019-05-18T06:51:07.329Z,35.60
2019-05-18T06:53:34.044Z,35.50
2019-05-18T06:56:05.197Z,35.40
2019-05-18T06:58:35.762Z,35.30
2019-05-18T07:01:05.559Z,34.80
2019-05-18T07:03:35.456Z,35.00
2019-05-18T07:06:05.438Z,34.80
2019-05-18T07:08:35.325Z,34.40
2019-05-18T07:11:05.228Z,34.30
2019-05-18T07:13:35.070Z,34.20
2019-05-18T07:16:05.125Z,34.10
2019-05-18T07:18:34.904Z,34.10
2019-05-18T07:21:05.780Z,33.30
2019-05-18T07:23:35.553Z,33.90
2019-05-18T07:26:05.439Z,33.60
2019-05-18T07:28:35.263Z,33.30
2019-05-18T07:31:05.107Z,33.10
2019-05-18T07:33:34.881Z,32.90
2019-05-18T07:36:04.695Z,32.50
2019-05-18T07:38:35.378Z,32.50
2019-05-18T07:41:05.157Z,32.60
2019-05-18T07:43:34.934Z,32.20
2019-05-18T07:46:04.834Z,32.20
2019-05-18T07:48:35.354Z,32.10
2019-05-18T07:51:05.165Z,32.30
2019-05-18T07:53:34.944Z,32.20
2019-05-18T07:56:04.946Z,32.40
2019-05-18T07:58:34.729Z,32.20
2019-05-18T08:01:04.496Z,32.30
2019-05-18T08:03:34.293Z,32.20
2019-05-18T08:06:04.078Z,32.60
2019-05-18T08:08:33.894Z,32.20
2019-05-18T08:11:03.715Z,32.20
2019-05-18T08:13:33.609Z,31.90
2019-05-18T08:16:03.422Z,32.30
2019-05-18T08:18:33.385Z,32.30
2019-05-18T08:21:04.000Z,32.10
2019-05-18T08:23:33.842Z,32.00
2019-05-18T08:26:03.764Z,32.20
2019-05-18T08:28:33.649Z,31.80
2019-05-18T08:31:03.426Z,31.80
2019-05-18T08:33:33.345Z,31.70
2019-05-18T08:36:03.328Z,31.90
2019-05-18T08:38:33.202Z,32.00
2019-05-18T08:41:03.226Z,32.00
2019-05-18T08:43:33.050Z,31.80
2019-05-18T08:46:02.870Z,31.80
2019-05-18T08:48:32.822Z,31.70
2019-05-18T08:51:02.664Z,31.50
2019-05-18T08:53:32.578Z,31.40
2019-05-18T08:56:02.498Z,31.50
2019-05-18T08:58:33.030Z,31.30
2019-05-18T09:01:02.925Z,31.40
2019-05-18T09:03:32.814Z,31.40
2019-05-18T09:06:03.102Z,31.10
2019-05-18T09:08:33.622Z,31.30
2019-05-18T09:11:04.232Z,31.40
2019-05-18T09:13:34.049Z,31.30
2019-05-18T09:16:03.866Z,32.00
2019-05-18T09:18:33.690Z,31.20
2019-05-18T09:21:03.586Z,31.30
2019-05-18T09:26:13.701Z,30.90
2019-05-18T09:28:43.765Z,31.40
2019-05-18T09:31:13.557Z,31.00
2019-05-18T09:33:44.060Z,31.30
2019-05-18T09:36:13.876Z,30.50
2019-05-18T09:38:43.701Z,30.20
2019-05-18T09:41:13.603Z,31.00
2019-05-18T09:43:43.509Z,31.20
2019-05-18T09:46:13.412Z,31.00
2019-05-18T09:48:43.202Z,31.00
2019-05-18T09:51:13.129Z,31.30
2019-05-18T09:53:51.075Z,31.50
2019-05-18T09:56:15.348Z,31.90
2019-05-18T09:58:45.117Z,32.00
2019-05-18T10:01:14.970Z,31.70
2019-05-18T10:03:44.770Z,32.20
2019-05-18T10:06:14.755Z,32.20
2019-05-18T10:08:44.517Z,32.60
2019-05-18T10:11:14.366Z,33.20
2019-05-18T10:13:44.173Z,34.20
2019-05-18T10:16:14.045Z,34.80
2019-05-18T10:18:43.844Z,35.00
2019-05-18T10:21:13.670Z,35.10
2019-05-18T10:23:43.446Z,35.50
2019-05-18T10:26:13.433Z,35.50
2019-05-18T10:28:43.357Z,35.80
2019-05-18T10:31:13.445Z,36.30
2019-05-18T10:33:43.232Z,37.30
2019-05-18T10:36:13.149Z,37.20
2019-05-18T10:38:43.040Z,37.90
2019-05-18T10:41:12.834Z,37.20
2019-05-18T10:43:46.991Z,37.30
2019-05-18T10:46:14.594Z,36.80
2019-05-18T10:48:44.369Z,37.40
2019-05-18T10:51:14.129Z,38.10
2019-05-18T10:53:44.103Z,38.10
2019-05-18T10:56:14.891Z,37.80
2019-05-18T10:58:44.750Z,37.70
2019-05-18T11:01:14.630Z,38.00
2019-05-18T11:03:44.455Z,38.30
2019-05-18T11:06:14.274Z,38.30
2019-05-18T11:08:44.215Z,38.00
2019-05-18T11:11:14.110Z,37.90
2019-05-18T11:13:43.916Z,38.20
2019-05-18T11:16:13.864Z,37.50
2019-05-18T11:18:44.362Z,37.30
2019-05-18T11:21:14.250Z,37.60
2019-05-18T11:23:47.721Z,37.80
2019-05-18T11:26:15.763Z,38.20
2019-05-18T11:28:45.537Z,38.40
2019-05-18T11:31:15.366Z,38.30
2019-05-18T11:33:45.297Z,38.50
2019-05-18T11:36:15.141Z,38.80
2019-05-18T11:38:44.965Z,38.40
2019-05-18T11:41:14.857Z,38.60
2019-05-18T11:43:44.678Z,38.40
2019-05-18T11:46:15.453Z,37.90
2019-05-18T11:48:46.321Z,37.70
2019-05-18T11:51:16.114Z,37.50
2019-05-18T11:53:57.441Z,37.50
2019-05-18T11:56:17.519Z,37.00
2019-05-18T11:58:47.472Z,36.80
2019-05-18T12:01:17.239Z,37.10
2019-05-18T12:03:47.062Z,37.50
2019-05-18T12:06:17.069Z,37.80
2019-05-18T12:08:46.975Z,39.10
2019-05-18T12:11:16.879Z,39.90
2019-05-18T12:13:46.703Z,39.40
2019-05-18T12:16:17.497Z,39.70
2019-05-18T12:18:47.374Z,38.50
2019-05-18T12:21:17.148Z,37.80
2019-05-18T12:23:47.045Z,38.60
2019-05-18T12:26:16.838Z,38.80
2019-05-18T12:28:46.609Z,38.80
2019-05-18T12:31:16.382Z,38.60
2019-05-18T12:33:46.201Z,36.40
2019-05-18T12:36:16.170Z,35.70
2019-05-18T12:38:45.946Z,35.90
2019-05-18T12:41:18.134Z,36.00
2019-05-18T12:43:47.943Z,36.80
2019-05-18T12:46:17.789Z,37.20
2019-05-18T12:48:48.402Z,37.50
2019-05-18T12:51:18.178Z,38.20
2019-05-18T12:53:47.953Z,37.40
2019-05-18T12:56:17.833Z,36.60
2019-05-18T12:58:47.600Z,36.70
2019-05-18T13:01:17.461Z,37.50
2019-05-18T13:03:47.283Z,38.00
2019-05-18T13:06:17.061Z,38.40
2019-05-18T13:08:47.552Z,38.30
2019-05-18T13:11:17.637Z,37.00
2019-05-18T13:13:47.424Z,36.50
2019-05-18T13:16:17.327Z,36.00
2019-05-18T13:18:48.793Z,37.30
2019-05-18T13:21:18.717Z,37.70
2019-05-18T13:23:48.595Z,37.90
2019-05-18T13:26:18.362Z,37.90
2019-05-18T13:28:48.203Z,37.70
2019-05-18T13:31:18.077Z,37.60
2019-05-18T13:33:47.857Z,36.80
2019-05-18T13:36:18.682Z,37.00
2019-05-18T13:38:48.611Z,37.50
2019-05-18T13:41:18.439Z,36.70
2019-05-18T13:43:48.406Z,36.80
2019-05-18T13:46:18.237Z,35.70
2019-05-18T13:48:48.058Z,34.60
2019-05-18T13:51:17.911Z,34.40
2019-05-18T13:53:48.644Z,34.50
2019-05-18T13:56:18.415Z,34.20
2019-05-18T13:58:48.217Z,35.00
2019-05-18T14:01:18.029Z,33.30
2019-05-18T14:03:47.834Z,33.50
2019-05-18T14:06:17.649Z,34.00
2019-05-18T14:08:47.434Z,34.60
2019-05-18T14:11:17.411Z,33.50
2019-05-18T14:13:47.885Z,33.60
2019-05-18T14:16:17.706Z,32.80
2019-05-18T14:18:48.051Z,32.80
2019-05-18T14:21:17.866Z,32.50
2019-05-18T14:23:47.785Z,32.10
2019-05-18T14:26:17.686Z,32.60
2019-05-18T14:28:47.540Z,33.00
2019-05-18T14:31:17.401Z,33.50
2019-05-18T14:33:47.226Z,33.10
2019-05-18T14:36:17.209Z,32.70
2019-05-18T14:38:47.147Z,32.30
2019-05-18T14:41:17.004Z,32.50
2019-05-18T14:43:46.873Z,33.00
2019-05-18T14:46:16.774Z,32.80
2019-05-18T14:48:46.565Z,32.90
2019-05-18T14:51:16.394Z,32.70
2019-05-18T14:53:46.539Z,33.00
2019-05-18T14:56:16.561Z,33.50
2019-05-18T14:58:47.093Z,34.00
2019-05-18T15:01:16.876Z,33.90
2019-05-18T15:03:46.665Z,34.30
2019-05-18T15:06:16.506Z,33.90
2019-05-18T15:08:46.996Z,33.80
2019-05-18T15:11:16.826Z,32.90
2019-05-18T15:13:46.638Z,33.20
2019-05-18T15:16:16.448Z,32.90
2019-05-18T15:18:46.261Z,32.70
2019-05-18T15:21:16.126Z,32.40
2019-05-18T15:23:46.039Z,31.60
2019-05-18T15:26:15.913Z,31.80
2019-05-18T15:28:45.928Z,32.00
2019-05-18T15:31:15.735Z,31.90
2019-05-18T15:33:45.546Z,31.90
2019-05-18T15:36:15.318Z,32.30
2019-05-18T15:38:45.153Z,32.60
2019-05-18T15:41:14.950Z,32.60
2019-05-18T15:43:44.721Z,32.80
2019-05-18T15:46:14.499Z,33.10
2019-05-18T15:48:44.356Z,33.20
2019-05-18T15:51:14.226Z,33.80
2019-05-18T15:53:44.121Z,34.10
2019-05-18T15:56:13.930Z,34.50
2019-05-18T15:58:43.714Z,35.00
2019-05-18T16:01:13.611Z,35.20
2019-05-18T16:03:43.419Z,35.20
2019-05-18T16:06:13.381Z,35.60
2019-05-18T16:08:43.259Z,35.60
2019-05-18T16:11:13.170Z,35.70
2019-05-18T16:13:43.130Z,36.00
2019-05-18T16:16:12.892Z,36.10
2019-05-18T16:18:42.777Z,36.50
2019-05-18T16:21:12.604Z,36.40
2019-05-18T16:23:42.512Z,36.80
2019-05-18T16:26:21.261Z,36.70
2019-05-18T16:28:44.073Z,36.90
2019-05-18T16:31:14.041Z,36.70
2019-05-18T16:33:44.026Z,36.80
2019-05-18T16:36:13.835Z,36.50
2019-05-18T16:38:43.745Z,36.20
2019-05-18T16:41:13.518Z,36.10
2019-05-18T16:43:43.502Z,36.40
2019-05-18T16:46:13.393Z,36.80
2019-05-18T16:48:43.184Z,37.40
2019-05-18T16:51:13.056Z,37.40
2019-05-18T16:53:46.930Z,37.50
2019-05-18T16:56:14.563Z,37.70
2019-05-18T16:58:44.334Z,37.60
2019-05-18T17:01:14.101Z,37.60
2019-05-18T17:03:43.976Z,38.30
2019-05-18T17:06:16.527Z,37.80
2019-05-18T17:08:46.485Z,37.80
2019-05-18T17:11:16.617Z,37.90
2019-05-18T17:13:46.515Z,38.10
2019-05-18T17:16:16.295Z,38.00
2019-05-18T17:18:46.310Z,38.70
2019-05-18T17:21:16.191Z,38.20
2019-05-18T17:23:45.988Z,38.30
2019-05-18T17:26:15.946Z,38.50
2019-05-18T17:28:45.769Z,38.40
2019-05-18T17:31:15.670Z,38.60
2019-05-18T17:33:45.445Z,38.50
2019-05-18T17:36:15.365Z,38.50
2019-05-18T17:38:45.170Z,38.50
2019-05-18T17:41:15.084Z,38.20
2019-05-18T17:43:44.887Z,38.10
2019-05-18T17:46:14.903Z,38.00
2019-05-18T17:48:44.837Z,38.20
2019-05-18T17:51:14.642Z,38.30
2019-05-18T17:53:44.474Z,38.20
2019-05-18T17:56:14.250Z,38.30
2019-05-18T17:58:44.073Z,38.10
2019-05-18T18:01:13.972Z,38.00
2019-05-18T18:03:43.996Z,38.10
2019-05-18T18:06:13.753Z,38.00
2019-05-18T18:08:43.529Z,38.10
2019-05-18T18:11:13.341Z,38.20
2019-05-18T18:13:43.162Z,38.10
2019-05-18T18:16:13.003Z,38.00
2019-05-18T18:18:42.970Z,38.00
2019-05-18T18:21:12.792Z,38.10
2019-05-18T18:23:42.567Z,38.30
2019-05-18T18:26:12.366Z,38.40
2019-05-18T18:28:42.904Z,38.50
2019-05-18T18:31:12.672Z,38.60
2019-05-18T18:33:42.507Z,38.70
2019-05-18T18:36:12.448Z,38.80
2019-05-18T18:38:42.287Z,38.80
2019-05-18T18:41:12.116Z,39.00
2019-05-18T18:43:41.881Z,39.10
2019-05-18T18:46:11.670Z,39.30
2019-05-18T18:48:41.465Z,39.40
2019-05-18T18:51:11.299Z,39.50
2019-05-18T18:53:41.188Z,39.90
2019-05-18T18:56:11.069Z,40.30
2019-05-18T18:58:41.026Z,40.40
2019-05-18T19:01:10.849Z,40.60
2019-05-18T19:03:40.756Z,40.80
2019-05-18T19:06:11.522Z,41.00
2019-05-18T19:08:41.284Z,41.20
2019-05-18T19:11:11.087Z,41.40
2019-05-18T19:13:40.942Z,41.40
2019-05-18T19:16:10.749Z,41.40
2019-05-18T19:18:40.682Z,41.80
2019-05-18T19:21:10.604Z,42.20
2019-05-18T19:23:40.426Z,42.30
2019-05-18T19:26:10.247Z,42.60
2019-05-18T19:28:40.146Z,42.80
2019-05-18T19:31:10.054Z,42.90
2019-05-18T19:33:39.838Z,43.00
2019-05-18T19:36:09.798Z,43.30
2019-05-18T19:38:39.570Z,44.10
2019-05-18T19:41:09.346Z,43.80
2019-05-18T19:43:39.293Z,44.10
2019-05-18T19:46:09.066Z,44.30
2019-05-18T19:48:38.878Z,44.00
2019-05-18T19:51:08.765Z,44.40
2019-05-18T19:53:39.217Z,44.70
2019-05-18T19:56:09.078Z,44.90
2019-05-18T19:58:38.972Z,45.30
2019-05-18T20:01:08.756Z,45.60
2019-05-18T20:03:39.769Z,46.30
2019-05-18T20:06:09.553Z,46.60
2019-05-18T20:08:39.539Z,46.90
2019-05-18T20:11:10.290Z,47.20
2019-05-18T20:13:40.160Z,48.00
2019-05-18T20:16:09.925Z,48.20
2019-05-18T20:18:39.714Z,48.50
2019-05-18T20:21:09.677Z,48.80
2019-05-18T20:23:39.606Z,49.10
2019-05-18T20:26:09.467Z,49.80
2019-05-18T20:28:39.996Z,49.60
2019-05-18T20:31:09.831Z,49.60
2019-05-18T20:33:39.631Z,49.80
2019-05-18T20:36:09.434Z,49.80
2019-05-18T20:38:39.257Z,50.20
2019-05-18T20:41:09.030Z,50.40
2019-05-18T20:43:38.807Z,50.50
2019-05-18T20:46:08.591Z,50.40
2019-05-18T20:48:38.466Z,50.80
2019-05-18T20:51:08.251Z,50.90
2019-05-18T20:53:40.905Z,51.40
2019-05-18T20:56:09.658Z,51.30
2019-05-18T20:58:40.818Z,51.70
2019-05-18T21:01:10.770Z,52.40
2019-05-18T21:03:40.577Z,51.90
2019-05-18T21:06:11.074Z,51.90
2019-05-18T21:08:41.995Z,51.80
2019-05-18T21:11:11.898Z,52.00
2019-05-18T21:13:41.825Z,53.60
2019-05-18T21:16:11.602Z,53.20
2019-05-18T21:18:41.388Z,53.70
2019-05-18T21:21:11.294Z,53.80
2019-05-18T21:23:41.061Z,53.80
2019-05-18T21:26:10.983Z,53.70
2019-05-18T21:28:54.746Z,54.00
2019-05-18T21:31:12.306Z,54.00
2019-05-18T21:33:42.072Z,54.30
2019-05-18T21:36:11.845Z,54.20
2019-05-18T21:38:41.610Z,53.90
2019-05-18T21:41:11.506Z,54.20
2019-05-18T21:43:41.421Z,54.20
2019-05-18T21:46:11.237Z,54.50
2019-05-18T21:48:41.083Z,54.60
2019-05-18T21:51:10.950Z,54.60
2019-05-18T21:53:40.882Z,54.40
2019-05-18T21:56:10.690Z,54.70
2019-05-18T21:58:41.301Z,54.80
2019-05-18T22:01:11.122Z,55.60
2019-05-18T22:03:44.681Z,55.40
2019-05-18T22:06:12.445Z,55.30
2019-05-18T22:08:42.419Z,55.10
2019-05-18T22:11:12.309Z,55.30
2019-05-18T22:13:42.149Z,55.50
2019-05-18T22:16:11.913Z,55.90
2019-05-18T22:18:41.717Z,56.10
2019-05-18T22:21:12.814Z,56.50
2019-05-18T22:23:42.634Z,56.50
2019-05-18T22:26:12.499Z,56.50
2019-05-18T22:28:42.262Z,57.20
2019-05-18T22:31:12.036Z,57.20
2019-05-18T22:33:41.866Z,56.80
2019-05-18T22:36:11.684Z,57.20
2019-05-18T22:38:42.519Z,57.20
2019-05-18T22:41:12.290Z,57.10
2019-05-18T22:43:42.271Z,57.50
2019-05-18T22:46:12.103Z,57.40
2019-05-18T22:48:42.018Z,57.30
2019-05-18T22:51:11.827Z,57.70
2019-05-18T22:53:41.653Z,57.80
2019-05-18T22:56:11.463Z,58.20
2019-05-18T22:58:41.475Z,58.30
2019-05-18T23:01:11.295Z,58.10
2019-05-18T23:03:41.108Z,58.30
2019-05-18T23:06:11.047Z,58.30
2019-05-18T23:08:40.870Z,58.30
2019-05-18T23:11:11.425Z,58.70
2019-05-18T23:13:41.229Z,58.90
2019-05-18T23:16:11.107Z,59.10
2019-05-18T23:18:55.624Z,59.40
2019-05-18T23:21:12.502Z,59.50
2019-05-18T23:23:42.325Z,59.40
2019-05-18T23:26:12.268Z,59.40
2019-05-18T23:28:42.243Z,60.00
2019-05-18T23:31:12.099Z,60.30
2019-05-18T23:33:42.070Z,60.30
2019-05-18T23:36:12.437Z,60.20
2019-05-18T23:38:42.254Z,60.60
2019-05-18T23:41:12.072Z,60.60
2019-05-18T23:43:41.978Z,60.70
2019-05-18T23:46:11.879Z,60.90
2019-05-18T23:48:41.637Z,61.00
2019-05-18T23:51:12.672Z,61.00
2019-05-18T23:53:42.620Z,61.20
2019-05-18T23:56:12.385Z,60.80
2019-05-18T23:58:42.209Z,61.50
